Hauptseite
METAR-TAF:

METAR-TAF

Flughäfen :

Nörvenich, Deutschland

Fliegerhorst Nörvenich

Breite: 50-50N, Länge: 006-40E, Höhe: 118 m

Beobachtung

Neuester Wetterbericht von vor 1 Stunde und 25 Minuten, um 13:20 UTC
Wind 9 kt aus West
Temperatur 16°C
Luftfeuchtigkeit 55%
Luftdruck 1020 hPa
Sichtweite 10 km oder mehr
Aufgelockert bewölkt in der Höhe von 3500 ft
Durchbrochene Bewölkung in der Höhe von 9000 ft

METAR: ETNN 201320Z 28009KT 9999 SCT035 BKN090 16/07 Q1020 BLU BLU

Zeit: 16:45 (14:45 UTC)

Prognose

Neuester Wetterbericht von vor 4 Stunden und 30 Minuten, um 10:15 UTC
Gültige Prognose vom 20 um 11 UTC bis 20 um 20 UTC
Wind 8 kt aus West
Sichtweite 10 km oder mehr
Aufgelockert bewölkt in der Höhe von 2000 ft
Durchbrochene Bewölkung in der Höhe von 8000 ft

TAF: ETNN 201015Z 2011/2020 26008KT 9999 NSW SCT020 BKN080 BY ETGL

Wetterbeobachtungen und Prognosen von mehr als 4000 Flughäfen (METAR und TAF Bericht).

Die verfügbaren Stationen werden durch gelbe und rote Markierungen auf der Karte dargestellt.

Führen Sie die Maus auf sie, um den Namen der Station zu sehen.

Darauf klicken, um die Beobachtung von Wetterbeobachtungen und Prognosen zu sehen.

Um die Karte zu ändern : klicken Sie auf den grünen Tasten mit einem schwarzen Kreuz Zum Vergrößern, auf den grünen Button mit einem Gedankenstrich zu verkleinern, oder auf die grünen Pfeile für benachbarte Karten.


METAR-TAF: